createdAt,value
2023-05-02T00:00:47.344Z,4.10
2023-05-02T00:03:34.649Z,3.57
2023-05-02T00:06:21.456Z,3.57
2023-05-02T00:09:07.705Z,3.30
2023-05-02T00:11:54.197Z,3.57
2023-05-02T00:14:41.822Z,2.80
2023-05-02T00:17:28.234Z,2.93
2023-05-02T00:20:14.807Z,3.20
2023-05-02T00:23:01.045Z,2.97
2023-05-02T00:25:47.667Z,2.60
2023-05-02T00:28:34.068Z,2.60
2023-05-02T00:31:21.950Z,2.47
2023-05-02T00:34:08.220Z,2.33
2023-05-02T00:36:54.574Z,2.33
2023-05-02T00:39:40.814Z,2.50
2023-05-02T00:42:29.401Z,2.50
2023-05-02T00:45:15.977Z,3.10
2023-05-02T00:48:04.095Z,2.97
2023-05-02T00:50:50.373Z,2.43
2023-05-02T00:53:37.269Z,2.40
2023-05-02T00:56:23.962Z,2.83
2023-05-02T00:59:11.397Z,2.47
2023-05-02T01:02:01.894Z,3.00
2023-05-02T01:04:55.280Z,3.03
2023-05-02T01:08:02.997Z,3.00
2023-05-02T01:10:51.241Z,2.70
2023-05-02T01:13:38.895Z,3.00
2023-05-02T01:16:25.455Z,2.80
2023-05-02T01:19:14.778Z,3.10
2023-05-02T01:22:03.341Z,3.20
2023-05-02T01:24:53.016Z,3.40
2023-05-02T01:27:44.715Z,2.80
2023-05-02T01:30:34.877Z,3.20
2023-05-02T01:33:21.695Z,3.17
2023-05-02T01:36:08.661Z,2.77
2023-05-02T01:38:56.807Z,2.80
2023-05-02T01:41:43.730Z,3.13
2023-05-02T01:44:30.004Z,2.90
2023-05-02T01:47:18.577Z,3.60
2023-05-02T01:50:06.849Z,3.27
2023-05-02T01:52:54.080Z,3.47
2023-05-02T01:55:43.125Z,3.60
2023-05-02T01:58:30.895Z,3.30
2023-05-02T02:01:18.485Z,2.90
2023-05-02T02:04:07.598Z,2.70
2023-05-02T02:06:56.794Z,2.97
2023-05-02T02:09:43.192Z,2.87
2023-05-02T02:12:30.092Z,2.90
2023-05-02T02:15:19.465Z,2.80
2023-05-02T02:18:09.113Z,2.90
2023-05-02T02:20:57.452Z,2.80
2023-05-02T02:23:44.596Z,2.50
2023-05-02T02:26:31.222Z,2.50
2023-05-02T02:29:17.767Z,2.50
2023-05-02T02:32:04.220Z,3.80
2023-05-02T02:34:50.588Z,2.90
2023-05-02T02:37:40.599Z,3.17
2023-05-02T02:40:29.721Z,2.57
2023-05-02T02:43:20.577Z,7.20
2023-05-02T02:46:15.713Z,6.40
2023-05-02T02:49:11.102Z,6.37
2023-05-02T02:52:01.305Z,4.93
2023-05-02T02:54:52.539Z,3.30
2023-05-02T02:57:40.906Z,4.77
2023-05-02T03:00:28.684Z,4.67
2023-05-02T03:03:16.174Z,3.97
2023-05-02T03:06:05.138Z,4.00
2023-05-02T03:08:51.760Z,3.73
2023-05-02T03:11:42.117Z,3.70
2023-05-02T03:14:28.466Z,3.57
2023-05-02T03:17:15.133Z,3.47
2023-05-02T03:20:01.869Z,3.13
2023-05-02T03:22:48.528Z,2.90
2023-05-02T03:25:34.798Z,3.30
2023-05-02T03:28:22.484Z,3.50
2023-05-02T03:31:09.224Z,2.87
2023-05-02T03:33:56.567Z,2.70
2023-05-02T03:36:43.173Z,3.40
2023-05-02T03:39:29.626Z,3.27
2023-05-02T03:42:16.299Z,3.47
2023-05-02T03:45:04.145Z,3.80
2023-05-02T03:47:50.536Z,3.33
2023-05-02T03:50:37.241Z,3.53
2023-05-02T03:53:23.548Z,3.30
2023-05-02T03:56:10.089Z,3.43
2023-05-02T03:58:56.761Z,5.17
2023-05-02T04:01:44.560Z,5.90
2023-05-02T04:04:30.882Z,3.70
2023-05-02T04:07:19.608Z,4.43
2023-05-02T04:10:07.049Z,3.23
2023-05-02T04:12:53.514Z,4.27
2023-05-02T04:15:40.137Z,2.53
2023-05-02T04:18:27.908Z,3.17
2023-05-02T04:21:14.275Z,4.57
2023-05-02T04:24:00.653Z,5.10
2023-05-02T04:26:47.603Z,6.80
2023-05-02T04:29:33.523Z,5.00
2023-05-02T04:32:20.003Z,4.30
2023-05-02T04:35:07.982Z,3.63
2023-05-02T04:37:54.559Z,4.87
2023-05-02T04:40:41.386Z,5.00
2023-05-02T04:43:27.862Z,4.33
2023-05-02T04:46:14.049Z,3.00
2023-05-02T04:49:00.474Z,2.90
2023-05-02T04:51:48.402Z,3.00
2023-05-02T04:54:35.549Z,2.60
2023-05-02T04:57:23.346Z,3.10
2023-05-02T05:00:10.412Z,5.57
2023-05-02T05:02:59.351Z,4.83
2023-05-02T05:05:48.454Z,3.33
2023-05-02T05:08:36.350Z,8.90
2023-05-02T05:11:23.429Z,2.67
2023-05-02T05:14:10.052Z,2.90
2023-05-02T05:16:56.582Z,2.80
2023-05-02T05:19:42.824Z,3.50
2023-05-02T05:22:29.312Z,3.00
2023-05-02T05:25:16.885Z,2.47
2023-05-02T05:28:03.398Z,2.77
2023-05-02T05:30:49.589Z,2.70
2023-05-02T05:33:36.019Z,2.20
2023-05-02T05:36:23.790Z,2.63
2023-05-02T05:39:10.665Z,2.87
2023-05-02T05:41:58.503Z,2.53
2023-05-02T05:44:44.895Z,2.40
2023-05-02T05:47:31.343Z,2.37
2023-05-02T05:50:18.130Z,2.37
2023-05-02T05:53:04.276Z,5.67
2023-05-02T05:55:50.897Z,2.20
2023-05-02T05:58:40.264Z,2.10
2023-05-02T06:01:26.854Z,1.93
2023-05-02T06:04:13.340Z,3.40
2023-05-02T06:07:00.217Z,2.30
2023-05-02T06:09:47.237Z,1.83
2023-05-02T06:12:33.916Z,1.50
2023-05-02T06:15:21.986Z,1.50
2023-05-02T06:18:08.243Z,1.70
2023-05-02T06:20:54.929Z,2.00
2023-05-02T06:23:41.334Z,2.10
2023-05-02T06:26:27.599Z,2.10
2023-05-02T06:29:14.709Z,2.30
2023-05-02T06:32:02.271Z,1.83
2023-05-02T06:34:48.487Z,1.87
2023-05-02T06:37:35.987Z,1.90
2023-05-02T06:40:22.626Z,2.03
2023-05-02T06:43:08.945Z,1.80
2023-05-02T06:45:56.436Z,1.70
2023-05-02T06:48:44.501Z,1.90
2023-05-02T06:51:31.854Z,1.40
2023-05-02T06:54:17.917Z,1.67
2023-05-02T06:57:04.454Z,1.53
2023-05-02T06:59:50.720Z,1.77
2023-05-02T07:02:37.097Z,1.80
2023-05-02T07:05:25.049Z,1.80
2023-05-02T07:08:11.632Z,2.30
2023-05-02T07:10:58.304Z,2.00
2023-05-02T07:13:45.128Z,1.60
2023-05-02T07:16:31.595Z,1.90
2023-05-02T07:19:18.174Z,1.50
2023-05-02T07:22:07.009Z,1.80
2023-05-02T07:24:58.429Z,1.87
2023-05-02T07:27:44.750Z,1.40
2023-05-02T07:30:31.164Z,1.50
2023-05-02T07:33:17.547Z,1.83
2023-05-02T07:36:04.163Z,3.00
2023-05-02T07:38:52.441Z,4.37
2023-05-02T07:41:39.145Z,2.00
2023-05-02T07:44:25.810Z,1.73
2023-05-02T07:47:12.585Z,2.20
2023-05-02T07:49:59.139Z,2.00
2023-05-02T07:52:45.711Z,1.87
2023-05-02T07:55:33.538Z,2.13
2023-05-02T07:58:20.475Z,1.73
2023-05-02T08:01:06.832Z,2.10
2023-05-02T08:03:53.384Z,1.60
2023-05-02T08:06:39.818Z,1.93
2023-05-02T08:09:26.065Z,1.70
2023-05-02T08:12:13.811Z,1.70
2023-05-02T08:15:00.403Z,2.00
2023-05-02T08:17:46.652Z,1.47
2023-05-02T08:20:32.835Z,1.60
2023-05-02T08:23:19.337Z,1.60
2023-05-02T08:26:06.163Z,1.47
2023-05-02T08:28:53.714Z,1.53
2023-05-02T08:31:42.433Z,1.73
2023-05-02T08:34:29.095Z,1.97
2023-05-02T08:37:15.518Z,1.80
2023-05-02T08:40:03.178Z,1.63
2023-05-02T08:42:49.982Z,1.80
2023-05-02T08:45:40.956Z,1.60
2023-05-02T08:48:28.535Z,1.67
2023-05-02T08:51:15.938Z,1.77
2023-05-02T08:54:03.308Z,1.47
2023-05-02T08:56:49.978Z,1.60
2023-05-02T08:59:36.111Z,1.47
2023-05-02T09:02:30.287Z,1.40
2023-05-02T09:05:19.900Z,1.50
2023-05-02T09:08:06.579Z,1.60
2023-05-02T09:10:53.040Z,2.00
2023-05-02T09:13:41.256Z,1.80
2023-05-02T09:16:27.943Z,1.60
2023-05-02T09:19:25.003Z,2.17
2023-05-02T09:22:11.253Z,1.70
2023-05-02T09:24:59.438Z,1.77
2023-05-02T09:27:54.391Z,1.70
2023-05-02T09:30:41.115Z,1.60
2023-05-02T09:33:28.274Z,1.80
2023-05-02T09:36:16.919Z,1.87
2023-05-02T09:39:10.313Z,1.97
2023-05-02T09:41:57.601Z,1.60
2023-05-02T09:44:44.057Z,1.77
2023-05-02T09:47:30.816Z,1.60
2023-05-02T09:50:36.480Z,1.40
2023-05-02T09:53:25.785Z,1.97
2023-05-02T09:56:12.643Z,1.57
2023-05-02T09:59:13.985Z,1.60
2023-05-02T10:02:01.137Z,1.70
2023-05-02T10:04:47.942Z,1.50
2023-05-02T10:07:34.670Z,1.90
2023-05-02T10:10:22.599Z,1.50
2023-05-02T10:13:09.948Z,1.60
2023-05-02T10:16:00.160Z,1.77
2023-05-02T10:18:53.766Z,1.50
2023-05-02T10:21:41.515Z,1.70
2023-05-02T10:24:27.945Z,1.73
2023-05-02T10:27:16.084Z,1.50
2023-05-02T10:30:04.409Z,1.63
2023-05-02T10:32:52.911Z,1.70
2023-05-02T10:35:41.057Z,1.50
2023-05-02T10:38:27.825Z,1.33
2023-05-02T10:41:16.092Z,1.50
2023-05-02T10:44:07.679Z,1.47
2023-05-02T10:46:54.641Z,1.50
2023-05-02T10:49:50.451Z,1.20
2023-05-02T10:52:38.319Z,1.30
2023-05-02T10:55:25.202Z,1.60
2023-05-02T10:58:24.566Z,1.70
2023-05-02T11:01:29.886Z,1.50
2023-05-02T11:04:17.975Z,1.30
2023-05-02T11:07:20.219Z,1.50
2023-05-02T11:10:24.661Z,1.63
2023-05-02T11:13:11.314Z,1.40
2023-05-02T11:15:58.175Z,1.43
2023-05-02T11:19:11.348Z,1.60
2023-05-02T11:22:27.150Z,1.60
2023-05-02T11:25:29.260Z,1.43
2023-05-02T11:28:35.002Z,1.60
2023-05-02T11:31:36.325Z,1.30
2023-05-02T11:34:23.321Z,1.50
2023-05-02T11:37:15.515Z,1.40
2023-05-02T11:40:11.616Z,1.37
2023-05-02T11:42:59.140Z,1.40
2023-05-02T11:45:45.971Z,1.30
2023-05-02T11:48:32.840Z,1.23
2023-05-02T11:51:23.854Z,1.00
2023-05-02T11:54:17.755Z,1.50
2023-05-02T11:57:04.484Z,1.60
2023-05-02T11:59:50.982Z,1.33
2023-05-02T12:02:37.918Z,1.30
2023-05-02T12:05:29.435Z,1.30
2023-05-02T12:08:19.856Z,1.50
2023-05-02T12:11:07.994Z,1.70
2023-05-02T12:13:54.453Z,1.40
2023-05-02T12:16:40.950Z,1.33
2023-05-02T12:19:28.012Z,1.60
2023-05-02T12:22:14.628Z,1.43
2023-05-02T12:25:01.601Z,1.57
2023-05-02T12:28:01.598Z,1.50
2023-05-02T12:30:49.090Z,1.40
2023-05-02T12:33:43.031Z,1.33
2023-05-02T12:36:29.875Z,1.53
2023-05-02T12:39:35.184Z,1.50
2023-05-02T12:42:22.726Z,1.33
2023-05-02T12:45:19.135Z,1.60
2023-05-02T12:48:18.959Z,1.67
2023-05-02T12:51:05.541Z,1.60
2023-05-02T12:53:52.188Z,1.40
2023-05-02T12:56:43.685Z,1.57
2023-05-02T12:59:31.315Z,1.40
2023-05-02T13:02:19.230Z,1.30
2023-05-02T13:05:14.957Z,1.90
2023-05-02T13:08:01.479Z,1.60
2023-05-02T13:10:48.298Z,1.43
2023-05-02T13:13:35.649Z,1.40
2023-05-02T13:16:22.236Z,1.70
2023-05-02T13:19:10.266Z,1.40
2023-05-02T13:21:56.942Z,1.40
2023-05-02T13:24:44.984Z,1.57
2023-05-02T13:27:31.621Z,1.70
2023-05-02T13:30:17.850Z,1.70
2023-05-02T13:33:04.524Z,1.77
2023-05-02T13:35:52.538Z,1.40
2023-05-02T13:38:39.405Z,1.50
2023-05-02T13:41:25.621Z,1.30
2023-05-02T13:44:12.307Z,1.50
2023-05-02T13:46:58.380Z,1.93
2023-05-02T13:49:44.705Z,1.40
2023-05-02T13:52:32.344Z,1.53
2023-05-02T13:55:18.864Z,1.73
2023-05-02T13:58:06.003Z,1.80
2023-05-02T14:00:52.229Z,1.63
2023-05-02T14:03:38.745Z,1.50
2023-05-02T14:06:25.297Z,1.30
2023-05-02T14:09:13.361Z,1.30
2023-05-02T14:11:59.930Z,1.70
2023-05-02T14:14:46.506Z,1.70
2023-05-02T14:17:33.162Z,1.30
2023-05-02T14:20:19.670Z,1.43
2023-05-02T14:23:07.594Z,1.63
2023-05-02T14:25:55.416Z,1.40
2023-05-02T14:28:41.824Z,1.40
2023-05-02T14:31:28.875Z,1.57
2023-05-02T14:34:15.529Z,1.80
2023-05-02T14:37:02.038Z,1.90
2023-05-02T14:39:58.195Z,1.53
2023-05-02T14:42:45.961Z,1.40
2023-05-02T14:45:32.664Z,1.20
2023-05-02T14:48:19.227Z,1.30
2023-05-02T14:51:05.759Z,1.40
2023-05-02T14:53:52.643Z,1.37
2023-05-02T14:56:39.051Z,1.53
2023-05-02T14:59:29.154Z,1.60
2023-05-02T15:02:15.357Z,1.37
2023-05-02T15:05:01.640Z,1.80
2023-05-02T15:07:48.109Z,1.37
2023-05-02T15:10:37.587Z,2.30
2023-05-02T15:13:24.609Z,1.40
2023-05-02T15:16:12.804Z,1.70
2023-05-02T15:18:59.006Z,1.73
2023-05-02T15:21:45.395Z,1.73
2023-05-02T15:24:31.924Z,1.43
2023-05-02T15:27:18.307Z,2.10
2023-05-02T15:30:06.703Z,1.70
2023-05-02T15:32:54.711Z,1.70
2023-05-02T15:35:40.953Z,1.77
2023-05-02T15:38:27.698Z,3.23
2023-05-02T15:41:14.411Z,2.20
2023-05-02T15:44:01.566Z,1.50
2023-05-02T15:46:47.900Z,2.30
2023-05-02T15:49:35.843Z,1.40
2023-05-02T15:52:22.833Z,2.20
2023-05-02T15:55:09.317Z,3.07
2023-05-02T15:57:56.269Z,3.57
2023-05-02T16:00:42.402Z,2.10
2023-05-02T16:03:29.046Z,2.17
2023-05-02T16:06:17.658Z,1.80
2023-05-02T16:09:03.981Z,2.10
2023-05-02T16:11:50.306Z,1.87
2023-05-02T16:14:37.119Z,1.90
2023-05-02T16:17:25.252Z,1.90
2023-05-02T16:20:12.957Z,1.43
2023-05-02T16:23:02.301Z,1.70
2023-05-02T16:25:49.379Z,3.03
2023-05-02T16:28:36.049Z,2.40
2023-05-02T16:31:22.723Z,2.17
2023-05-02T16:34:09.252Z,3.00
2023-05-02T16:36:56.681Z,2.20
2023-05-02T16:39:46.428Z,2.03
2023-05-02T16:42:34.459Z,2.43
2023-05-02T16:45:21.013Z,3.40
2023-05-02T16:48:07.847Z,3.10
2023-05-02T16:50:54.115Z,1.70
2023-05-02T16:53:40.652Z,1.80
2023-05-02T16:56:28.383Z,1.90
2023-05-02T16:59:15.013Z,2.03
2023-05-02T17:02:02.371Z,2.20
2023-05-02T17:04:49.326Z,2.37
2023-05-02T17:07:35.930Z,1.97
2023-05-02T17:10:24.085Z,2.17
2023-05-02T17:13:12.755Z,2.20
2023-05-02T17:16:00.015Z,2.20
2023-05-02T17:18:46.140Z,1.80
2023-05-02T17:21:32.711Z,1.90
2023-05-02T17:24:18.734Z,2.20
2023-05-02T17:27:06.692Z,2.10
2023-05-02T17:29:54.738Z,1.80
2023-05-02T17:32:41.863Z,1.93
2023-05-02T17:35:28.121Z,2.30
2023-05-02T17:38:14.727Z,2.57
2023-05-02T17:41:01.122Z,2.10
2023-05-02T17:43:49.095Z,2.37
2023-05-02T17:46:38.135Z,2.57
2023-05-02T17:49:25.284Z,2.40
2023-05-02T17:52:12.177Z,2.20
2023-05-02T17:54:58.876Z,2.33
2023-05-02T17:57:45.203Z,2.70
2023-05-02T18:00:31.993Z,3.17
2023-05-02T18:03:20.243Z,2.07
2023-05-02T18:06:07.108Z,1.97
2023-05-02T18:08:53.537Z,2.00
2023-05-02T18:11:40.033Z,2.30
2023-05-02T18:14:26.467Z,2.00
2023-05-02T18:17:12.953Z,2.27
2023-05-02T18:20:00.990Z,2.10
2023-05-02T18:22:47.452Z,2.03
2023-05-02T18:25:34.816Z,2.03
2023-05-02T18:28:21.478Z,1.93
2023-05-02T18:31:08.219Z,1.93
2023-05-02T18:33:54.911Z,1.80
2023-05-02T18:36:45.045Z,1.73
2023-05-02T18:39:32.103Z,1.97
2023-05-02T18:42:18.395Z,1.90
2023-05-02T18:45:06.278Z,2.07
2023-05-02T18:47:52.885Z,2.90
2023-05-02T18:50:39.269Z,2.40
2023-05-02T18:53:27.210Z,2.03
2023-05-02T18:56:14.623Z,2.63
2023-05-02T18:59:00.889Z,2.50
2023-05-02T19:01:48.535Z,2.17
2023-05-02T19:04:34.825Z,2.40
2023-05-02T19:07:21.401Z,2.10
2023-05-02T19:10:11.198Z,2.33
2023-05-02T19:12:58.219Z,2.37
2023-05-02T19:15:44.511Z,2.50
2023-05-02T19:18:30.992Z,2.00
2023-05-02T19:21:17.613Z,2.10
2023-05-02T19:24:04.299Z,2.23
2023-05-02T19:26:51.866Z,2.57
2023-05-02T19:29:38.537Z,2.87
2023-05-02T19:32:25.194Z,4.30
2023-05-02T19:35:11.756Z,3.20
2023-05-02T19:37:58.057Z,2.90
2023-05-02T19:40:44.555Z,2.70
2023-05-02T19:43:33.004Z,2.50
2023-05-02T19:46:20.023Z,2.63
2023-05-02T19:49:06.604Z,3.27
2023-05-02T19:51:53.358Z,2.47
2023-05-02T19:54:40.030Z,2.10
2023-05-02T19:57:26.721Z,2.00
2023-05-02T20:00:15.225Z,2.23
2023-05-02T20:03:01.828Z,2.50
2023-05-02T20:05:48.688Z,2.30
2023-05-02T20:08:35.029Z,2.40
2023-05-02T20:11:21.518Z,2.30
2023-05-02T20:14:08.031Z,1.80
2023-05-02T20:17:01.194Z,1.60
2023-05-02T20:19:48.379Z,1.70
2023-05-02T20:22:34.751Z,1.97
2023-05-02T20:25:22.684Z,2.23
2023-05-02T20:28:08.880Z,2.30
2023-05-02T20:30:55.418Z,1.90
2023-05-02T20:33:45.634Z,2.07
2023-05-02T20:36:32.632Z,1.97
2023-05-02T20:39:20.856Z,1.60
2023-05-02T20:42:07.379Z,1.90
2023-05-02T20:44:54.400Z,1.73
2023-05-02T20:47:41.329Z,2.07
2023-05-02T20:50:29.058Z,2.10
2023-05-02T20:53:15.923Z,1.93
2023-05-02T20:56:02.341Z,1.90
2023-05-02T20:58:48.783Z,2.03
2023-05-02T21:01:35.529Z,2.00
2023-05-02T21:04:21.835Z,2.03
2023-05-02T21:07:09.234Z,2.00
2023-05-02T21:09:55.887Z,1.80
2023-05-02T21:12:42.272Z,1.70
2023-05-02T21:15:28.419Z,1.70
2023-05-02T21:18:15.298Z,1.83
2023-05-02T21:21:01.771Z,1.97
2023-05-02T21:23:49.863Z,1.70
2023-05-02T21:26:36.107Z,2.20
2023-05-02T21:29:22.395Z,1.57
2023-05-02T21:32:08.821Z,2.00
2023-05-02T21:34:55.457Z,2.00
2023-05-02T21:37:41.506Z,1.77
2023-05-02T21:40:31.643Z,2.30
2023-05-02T21:43:18.206Z,2.43
2023-05-02T21:46:05.091Z,2.27
2023-05-02T21:48:51.144Z,2.37
2023-05-02T21:51:40.626Z,2.30
2023-05-02T21:54:26.922Z,2.23
2023-05-02T21:57:14.779Z,2.33
2023-05-02T22:00:01.355Z,2.37
2023-05-02T22:02:48.155Z,2.20
2023-05-02T22:05:34.386Z,2.27
2023-05-02T22:08:20.595Z,2.40
2023-05-02T22:11:09.559Z,2.40
2023-05-02T22:13:57.553Z,2.77
2023-05-02T22:16:44.391Z,1.83
2023-05-02T22:19:31.362Z,1.90
2023-05-02T22:22:17.672Z,2.10
2023-05-02T22:25:04.318Z,2.10
2023-05-02T22:27:50.568Z,2.47
2023-05-02T22:30:38.574Z,2.17
2023-05-02T22:33:25.157Z,2.47
2023-05-02T22:36:11.516Z,2.33
2023-05-02T22:38:57.830Z,2.50
2023-05-02T22:41:44.114Z,2.53
2023-05-02T22:44:31.060Z,2.30
2023-05-02T22:47:22.790Z,2.10
2023-05-02T22:50:12.074Z,2.17
2023-05-02T22:52:59.683Z,1.70
2023-05-02T22:55:46.104Z,2.10
2023-05-02T22:58:32.853Z,2.00
2023-05-02T23:01:19.203Z,2.90
2023-05-02T23:04:06.861Z,2.90
2023-05-02T23:06:53.430Z,2.60
2023-05-02T23:09:39.920Z,2.40
2023-05-02T23:12:26.152Z,2.97
2023-05-02T23:15:12.908Z,2.70
2023-05-02T23:17:59.517Z,2.17
2023-05-02T23:20:47.107Z,2.00
2023-05-02T23:23:33.562Z,2.20
2023-05-02T23:26:20.168Z,1.90
2023-05-02T23:29:06.743Z,2.20
2023-05-02T23:31:54.566Z,2.20
2023-05-02T23:34:41.457Z,2.27
2023-05-02T23:37:29.386Z,1.83
2023-05-02T23:40:15.468Z,2.03
2023-05-02T23:43:02.168Z,2.20
2023-05-02T23:45:48.294Z,1.93
2023-05-02T23:48:34.831Z,2.10
2023-05-02T23:51:21.325Z,2.20
2023-05-02T23:54:09.112Z,2.00
2023-05-02T23:56:56.140Z,1.70
2023-05-02T23:59:42.974Z,1.70
